Time;durP1;ratioP1;P1;durP2;ratioP2;P2;SDS_P1;SDS_P2;PMS_P1;PMS_P2;Temp;Humidity;BMP_temperature;BMP_pressure;BME280_temperature;BME280_humidity;BME280_pressure;Samples;Min_cycle;Max_cycle;Signal;HPM_P1;HPM_P2
2021/03/23 00:01:28;;;;;;;;;;;0.20;73.60;;;;;;5050401;28;19926;-78
2021/03/23 00:03:54;;;;;;;;;;;0.10;73.60;;;;;;5053379;28;19958;-77
2021/03/23 00:06:21;;;;;;;;;;;0.10;73.80;;;;;;5036766;28;19913;-78
2021/03/23 00:08:50;;;;;;;;;;;0.10;73.80;;;;;;5053996;28;19959;-78
2021/03/23 00:11:22;;;;;;;;;;;0.10;73.80;;;;;;5036044;28;20273;-77
2021/03/23 00:13:48;;;;;;;;;;;0.00;74.50;;;;;;5054073;28;19909;-78
2021/03/23 00:16:15;;;;;;;;;;;0.00;74.10;;;;;;5053689;28;20433;-76
2021/03/23 00:18:40;;;;;;;;;;;0.00;74.30;;;;;;5050089;28;19908;-77
2021/03/23 00:21:07;;;;;;;;;;;0.00;74.60;;;;;;5043046;28;19921;-77
2021/03/23 00:23:33;;;;;;;;;;;0.00;74.80;;;;;;5060408;28;19916;-75
2021/03/23 00:26:00;;;;;;;;;;;-0.10;74.90;;;;;;5040811;28;20281;-77
2021/03/23 00:28:26;;;;;;;;;;;-0.10;75.10;;;;;;5055425;28;20377;-77
2021/03/23 00:30:52;;;;;;;;;;;-0.10;75.20;;;;;;5056088;28;19916;-76
2021/03/23 00:33:18;;;;;;;;;;;-0.10;75.50;;;;;;5054040;28;19909;-77
2021/03/23 00:35:43;;;;;;;;;;;-0.10;75.90;;;;;;5053343;28;19915;-77
2021/03/23 00:38:10;;;;;;;;;;;-0.20;76.10;;;;;;5035705;28;20281;-76
2021/03/23 00:40:36;;;;;;;;;;;-0.10;76.10;;;;;;5053316;28;19917;-77
2021/03/23 00:43:03;;;;;;;;;;;-0.10;76.00;;;;;;5053356;28;19954;-77
2021/03/23 00:45:29;;;;;;;;;;;-0.10;76.00;;;;;;5053484;28;19996;-77
2021/03/23 00:47:54;;;;;;;;;;;0.00;76.10;;;;;;5053183;28;20029;-77
2021/03/23 00:50:20;;;;;;;;;;;0.00;76.20;;;;;;5053265;28;20417;-76
2021/03/23 00:52:46;;;;;;;;;;;-0.10;76.00;;;;;;5060896;28;19919;-77
2021/03/23 00:55:12;;;;;;;;;;;-0.10;76.00;;;;;;5043240;28;19930;-77
2021/03/23 00:57:38;;;;;;;;;;;-0.10;76.30;;;;;;5059031;28;19909;-76
2021/03/23 01:00:08;;;;;;;;;;;-0.20;76.30;;;;;;5059126;28;20101;-77
2021/03/23 01:02:34;;;;;;;;;;;-0.20;76.30;;;;;;5043182;28;19924;-77
2021/03/23 01:05:00;;;;;;;;;;;-0.20;76.70;;;;;;5053315;28;19912;-76
2021/03/23 01:07:25;;;;;;;;;;;-0.20;76.90;;;;;;5035850;28;19948;-77
2021/03/23 01:09:51;;;;;;;;;;;-0.20;76.80;;;;;;5053324;28;19909;-78
2021/03/23 01:12:17;;;;;;;;;;;-0.20;76.90;;;;;;5052820;28;19909;-76
2021/03/23 01:14:42;;;;;;;;;;;-0.30;76.80;;;;;;5052592;28;19909;-77
2021/03/23 01:17:08;;;;;;;;;;;-0.30;76.90;;;;;;5052914;28;19908;-76
2021/03/23 01:19:34;;;;;;;;;;;-0.20;76.90;;;;;;5065568;28;19925;-78
2021/03/23 01:22:01;;;;;;;;;;;-0.20;76.90;;;;;;5072881;28;19925;-79
2021/03/23 01:24:26;;;;;;;;;;;-0.20;77.10;;;;;;5073670;28;19931;-79
2021/03/23 01:26:52;;;;;;;;;;;-0.30;77.10;;;;;;5060142;28;19909;-77
2021/03/23 01:29:18;;;;;;;;;;;-0.30;77.40;;;;;;5057470;28;19908;-77
2021/03/23 01:31:43;;;;;;;;;;;-0.40;77.50;;;;;;5062107;28;19931;-77
2021/03/23 01:34:09;;;;;;;;;;;-0.40;77.50;;;;;;5055894;28;19909;-77
2021/03/23 01:36:35;;;;;;;;;;;-0.40;77.60;;;;;;5073593;28;19909;-78
2021/03/23 01:39:00;;;;;;;;;;;-0.50;77.50;;;;;;5058694;28;20008;-77
2021/03/23 01:41:26;;;;;;;;;;;-0.40;77.60;;;;;;5053088;28;19917;-77
2021/03/23 01:43:52;;;;;;;;;;;-0.50;77.60;;;;;;5035140;28;19909;-78
2021/03/23 01:46:39;;;;;;;;;;;-0.50;77.50;;;;;;5052524;28;19908;-77
2021/03/23 01:49:08;;;;;;;;;;;-0.50;77.60;;;;;;5052606;28;19913;-77
2021/03/23 01:51:33;;;;;;;;;;;-0.40;77.70;;;;;;5052848;28;20331;-77
2021/03/23 01:54:02;;;;;;;;;;;-0.50;77.70;;;;;;5053586;28;19909;-77
2021/03/23 01:56:27;;;;;;;;;;;-0.50;77.70;;;;;;5052264;28;19908;-78
2021/03/23 01:58:53;;;;;;;;;;;-0.50;77.80;;;;;;5052413;28;19942;-76
2021/03/23 02:01:20;;;;;;;;;;;-0.50;78.00;;;;;;5052280;28;19987;-79
2021/03/23 02:03:46;;;;;;;;;;;-0.50;77.90;;;;;;5043327;28;19966;-77
2021/03/23 02:06:29;;;;;;;;;;;-0.50;78.00;;;;;;5058297;28;19913;-77
2021/03/23 02:08:55;;;;;;;;;;;-0.40;78.10;;;;;;5052814;28;19939;-78
2021/03/23 02:11:20;;;;;;;;;;;-0.40;77.90;;;;;;5034392;28;19908;-76
2021/03/23 02:13:47;;;;;;;;;;;-0.40;77.90;;;;;;5052548;28;19920;-78
2021/03/23 02:16:12;;;;;;;;;;;-0.50;78.00;;;;;;5034669;28;19908;-78
2021/03/23 02:18:38;;;;;;;;;;;-0.50;78.00;;;;;;5052391;28;20050;-77
2021/03/23 02:21:05;;;;;;;;;;;-0.50;78.20;;;;;;5052388;28;19932;-76
2021/03/23 02:23:33;;;;;;;;;;;-0.50;78.30;;;;;;5052417;28;19957;-78
2021/03/23 02:25:59;;;;;;;;;;;-0.60;78.30;;;;;;5052640;28;19909;-76
2021/03/23 02:28:25;;;;;;;;;;;-0.60;78.80;;;;;;5055559;28;20017;-78
2021/03/23 02:30:52;;;;;;;;;;;-0.60;79.00;;;;;;5055758;28;19908;-78
2021/03/23 02:33:18;;;;;;;;;;;-0.70;79.10;;;;;;5055786;28;19909;-79
2021/03/23 02:35:44;;;;;;;;;;;-0.70;79.20;;;;;;5055552;28;20400;-80
2021/03/23 02:38:10;;;;;;;;;;;-0.70;79.20;;;;;;5037815;28;19978;-77
2021/03/23 02:40:35;;;;;;;;;;;-0.70;79.40;;;;;;5055604;28;20420;-77
2021/03/23 02:43:01;;;;;;;;;;;-0.70;79.80;;;;;;5055426;28;19999;-77
2021/03/23 02:45:27;;;;;;;;;;;-0.70;80.00;;;;;;5067277;28;19908;-78
2021/03/23 02:47:53;;;;;;;;;;;-0.70;80.00;;;;;;5057461;28;19909;-77
2021/03/23 02:50:19;;;;;;;;;;;-0.80;80.00;;;;;;5047057;28;19916;-78
2021/03/23 02:52:45;;;;;;;;;;;-0.80;80.10;;;;;;5045864;28;19934;-78
2021/03/23 02:55:11;;;;;;;;;;;-0.80;80.20;;;;;;5045217;28;20015;-78
2021/03/23 02:57:36;;;;;;;;;;;-0.90;80.30;;;;;;5062123;28;20290;-77
2021/03/23 03:00:06;;;;;;;;;;;-0.80;80.50;;;;;;5037192;28;19943;-77
2021/03/23 03:02:32;;;;;;;;;;;-0.80;80.70;;;;;;5037657;28;19982;-77
2021/03/23 03:04:57;;;;;;;;;;;-0.90;80.60;;;;;;5059615;28;19908;-79
2021/03/23 03:07:23;;;;;;;;;;;-0.90;81.00;;;;;;5075221;28;19913;-78
2021/03/23 03:09:49;;;;;;;;;;;-0.90;81.20;;;;;;5058446;28;19908;-77
2021/03/23 03:12:14;;;;;;;;;;;-0.90;81.40;;;;;;5063255;28;19909;-77
2021/03/23 03:14:40;;;;;;;;;;;-0.90;81.20;;;;;;5060746;28;19920;-78
2021/03/23 03:17:06;;;;;;;;;;;-0.90;81.10;;;;;;5055125;28;19932;-77
2021/03/23 03:19:31;;;;;;;;;;;-0.90;81.40;;;;;;5054626;28;19960;-76
2021/03/23 03:21:57;;;;;;;;;;;-1.00;81.50;;;;;;5054521;28;20011;-76
2021/03/23 03:24:23;;;;;;;;;;;-0.90;81.60;;;;;;5055001;28;20343;-77
2021/03/23 03:26:48;;;;;;;;;;;-0.80;81.70;;;;;;5069848;28;19948;-76
2021/03/23 03:29:14;;;;;;;;;;;-0.80;81.50;;;;;;5037518;28;20211;-76
2021/03/23 03:31:40;;;;;;;;;;;-0.70;81.40;;;;;;5064999;28;19919;-78
2021/03/23 03:34:05;;;;;;;;;;;-0.70;81.20;;;;;;5058185;28;19931;-77
2021/03/23 03:36:32;;;;;;;;;;;-0.60;81.20;;;;;;5054246;28;19915;-75
2021/03/23 03:38:58;;;;;;;;;;;-0.60;81.20;;;;;;5054156;28;19920;-79
2021/03/23 03:41:24;;;;;;;;;;;-0.60;81.00;;;;;;5036850;28;19913;-75
2021/03/23 03:43:49;;;;;;;;;;;-0.50;80.90;;;;;;5036461;28;19908;-77
2021/03/23 03:46:16;;;;;;;;;;;-0.50;80.80;;;;;;5036224;28;20015;-77
2021/03/23 03:48:41;;;;;;;;;;;-0.40;80.60;;;;;;5054134;28;19909;-78
2021/03/23 03:51:07;;;;;;;;;;;-0.40;80.60;;;;;;5053911;28;20259;-75
2021/03/23 03:53:33;;;;;;;;;;;-0.30;80.50;;;;;;5054277;28;20007;-75
2021/03/23 03:55:59;;;;;;;;;;;-0.30;80.20;;;;;;5053788;28;19908;-78
2021/03/23 03:58:25;;;;;;;;;;;-0.30;80.20;;;;;;5054006;28;19919;-79
2021/03/23 04:00:50;;;;;;;;;;;-0.30;80.10;;;;;;5036201;28;19920;-78
2021/03/23 04:03:17;;;;;;;;;;;-0.30;80.00;;;;;;5053738;28;19916;-76
2021/03/23 04:05:44;;;;;;;;;;;-0.40;80.10;;;;;;5035985;28;19909;-77
2021/03/23 04:08:11;;;;;;;;;;;-0.40;80.00;;;;;;5050126;28;19916;-77
2021/03/23 04:10:37;;;;;;;;;;;-0.30;80.00;;;;;;5054227;28;19977;-77
2021/03/23 04:13:03;;;;;;;;;;;-0.30;79.60;;;;;;5053872;28;19930;-78
2021/03/23 04:15:30;;;;;;;;;;;-0.40;79.40;;;;;;5054361;28;19999;-77
2021/03/23 04:17:56;;;;;;;;;;;-0.40;79.50;;;;;;5054342;28;19967;-77
2021/03/23 04:20:22;;;;;;;;;;;-0.30;79.60;;;;;;5072076;28;19916;-77
2021/03/23 04:22:48;;;;;;;;;;;-0.20;79.70;;;;;;5054959;28;19925;-77
2021/03/23 04:25:15;;;;;;;;;;;-0.20;79.30;;;;;;5055012;28;19913;-77
2021/03/23 04:27:41;;;;;;;;;;;-0.10;79.40;;;;;;5073568;28;20007;-76
2021/03/23 04:30:07;;;;;;;;;;;0.10;79.30;;;;;;5073609;28;20350;-78
2021/03/23 04:32:33;;;;;;;;;;;0.20;79.90;;;;;;5073124;28;19908;-79
2021/03/23 04:34:59;;;;;;;;;;;0.30;78.90;;;;;;5073716;28;19934;-77
2021/03/23 04:37:25;;;;;;;;;;;0.30;78.40;;;;;;5073197;28;19920;-76
2021/03/23 04:39:50;;;;;;;;;;;0.30;78.40;;;;;;5055274;28;19916;-78
2021/03/23 04:42:16;;;;;;;;;;;0.30;78.70;;;;;;5073153;28;19950;-78
2021/03/23 04:44:42;;;;;;;;;;;0.40;78.60;;;;;;5073172;28;19912;-76
2021/03/23 04:47:08;;;;;;;;;;;0.50;78.20;;;;;;5073521;28;19908;-78
2021/03/23 04:49:33;;;;;;;;;;;0.50;77.40;;;;;;5072929;28;20046;-78
2021/03/23 04:51:59;;;;;;;;;;;0.60;77.60;;;;;;5055989;28;19913;-78
2021/03/23 04:54:24;;;;;;;;;;;0.60;77.30;;;;;;5071937;28;20361;-77
2021/03/23 04:56:50;;;;;;;;;;;0.50;77.40;;;;;;5054831;28;19908;-77
2021/03/23 04:59:16;;;;;;;;;;;0.40;77.30;;;;;;5072979;28;19915;-78
2021/03/23 05:01:42;;;;;;;;;;;0.40;77.60;;;;;;5072802;28;19912;-78
2021/03/23 05:04:10;;;;;;;;;;;0.30;78.20;;;;;;5072894;28;19909;-77
2021/03/23 05:06:36;;;;;;;;;;;0.30;78.30;;;;;;5054490;28;19908;-78
2021/03/23 05:09:02;;;;;;;;;;;0.20;78.10;;;;;;5072721;28;19995;-79
2021/03/23 05:11:29;;;;;;;;;;;0.20;78.10;;;;;;5071313;28;19996;-78
2021/03/23 05:13:55;;;;;;;;;;;0.20;78.00;;;;;;5054654;28;19919;-79
2021/03/23 05:16:21;;;;;;;;;;;0.20;78.20;;;;;;5077419;28;20438;-77
2021/03/23 05:18:48;;;;;;;;;;;0.40;78.20;;;;;;5062549;28;19908;-77
2021/03/23 05:21:13;;;;;;;;;;;0.50;77.70;;;;;;5059182;28;19920;-79
2021/03/23 05:23:39;;;;;;;;;;;0.50;77.20;;;;;;5053034;28;19912;-78
2021/03/23 05:26:05;;;;;;;;;;;0.60;76.90;;;;;;5052764;28;20370;-78
2021/03/23 05:28:31;;;;;;;;;;;0.70;76.90;;;;;;5052897;28;19909;-78
2021/03/23 05:30:57;;;;;;;;;;;0.80;76.90;;;;;;5052855;28;19913;-77
2021/03/23 05:33:23;;;;;;;;;;;0.90;76.30;;;;;;5052436;28;19908;-77
2021/03/23 05:35:50;;;;;;;;;;;0.80;76.50;;;;;;5068610;28;19916;-78
2021/03/23 05:38:16;;;;;;;;;;;0.80;76.40;;;;;;5072714;28;19909;-76
2021/03/23 05:40:46;;;;;;;;;;;0.90;76.30;;;;;;5073499;28;19970;-80
2021/03/23 05:43:30;;;;;;;;;;;1.20;76.20;;;;;;5057143;28;19916;-78
2021/03/23 05:45:58;;;;;;;;;;;1.40;75.00;;;;;;5073490;28;20002;-77
2021/03/23 05:48:31;;;;;;;;;;;1.50;74.10;;;;;;5071991;28;19913;-77
2021/03/23 05:50:59;;;;;;;;;;;1.60;73.40;;;;;;5066086;28;19912;-79
2021/03/23 05:53:51;;;;;;;;;;;1.70;73.40;;;;;;5072499;28;19931;-81
2021/03/23 05:56:17;;;;;;;;;;;1.90;72.50;;;;;;5067914;28;20024;-79
2021/03/23 05:58:51;;;;;;;;;;;2.00;72.20;;;;;;5071445;28;19908;-79
2021/03/23 06:01:19;;;;;;;;;;;1.90;71.20;;;;;;5071375;28;19968;-77
2021/03/23 06:03:48;;;;;;;;;;;1.60;71.30;;;;;;5076142;28;19909;-77
2021/03/23 06:06:28;;;;;;;;;;;1.60;71.90;;;;;;5075413;28;19908;-77
2021/03/23 06:08:54;;;;;;;;;;;1.80;72.10;;;;;;5058005;28;20015;-77
2021/03/23 06:11:38;;;;;;;;;;;2.00;71.70;;;;;;5074625;28;19943;-75
2021/03/23 06:14:22;;;;;;;;;;;2.00;71.20;;;;;;5065518;28;19912;-76
2021/03/23 06:16:48;;;;;;;;;;;1.90;70.90;;;;;;5075700;28;20281;-75
2021/03/23 06:19:17;;;;;;;;;;;1.90;71.20;;;;;;5069787;28;19913;-77
2021/03/23 06:21:45;;;;;;;;;;;1.90;70.90;;;;;;5063297;28;19927;-79
2021/03/23 06:24:17;;;;;;;;;;;2.00;70.40;;;;;;5077076;28;19938;-83
2021/03/23 06:26:46;;;;;;;;;;;2.10;70.80;;;;;;5076815;28;19912;-83
2021/03/23 06:29:30;;;;;;;;;;;2.20;70.80;;;;;;5076702;28;19913;-82
2021/03/23 06:32:16;;;;;;;;;;;2.00;69.60;;;;;;5058025;28;19915;-83
2021/03/23 06:34:55;;;;;;;;;;;2.00;70.10;;;;;;5079613;28;19944;-83
2021/03/23 06:37:25;;;;;;;;;;;2.20;70.30;;;;;;5078923;28;20271;-77
2021/03/23 06:39:53;;;;;;;;;;;2.40;69.10;;;;;;5075193;28;19916;-77
2021/03/23 06:42:37;;;;;;;;;;;2.50;68.50;;;;;;5075169;28;19919;-77
2021/03/23 06:45:22;;;;;;;;;;;2.50;68.30;;;;;;5075066;28;19952;-78
2021/03/23 06:47:49;;;;;;;;;;;2.50;67.90;;;;;;5072749;28;19916;-77
2021/03/23 06:50:44;;;;;;;;;;;2.60;68.20;;;;;;5075216;28;19923;-78
2021/03/23 06:53:26;;;;;;;;;;;2.60;68.00;;;;;;4972708;28;19914;-79
2021/03/23 06:55:52;;;;;;;;;;;2.50;67.30;;;;;;4973712;28;19910;-77
2021/03/23 06:58:21;;;;;;;;;;;2.60;67.80;;;;;;4973956;28;20384;-78
2021/03/23 07:01:07;;;;;;;;;;;2.50;67.10;;;;;;4974227;28;19925;-79
2021/03/23 07:03:33;;;;;;;;;;;2.40;67.40;;;;;;4974078;28;19910;-78
2021/03/23 07:05:58;;;;;;;;;;;2.50;68.00;;;;;;4974969;28;19914;-79
2021/03/23 07:08:25;;;;;;;;;;;2.60;67.50;;;;;;4976790;28;19938;-77
2021/03/23 07:10:51;;;;;;;;;;;2.70;66.70;;;;;;4967503;28;19942;-77
2021/03/23 07:13:25;;;;;;;;;;;2.90;65.60;;;;;;4957443;28;20358;-81
2021/03/23 07:16:06;;;;;;;;;;;2.90;65.20;;;;;;4960564;28;19992;-80
2021/03/23 07:18:35;;;;;;;;;;;3.20;65.70;;;;;;4958398;28;19910;-79
2021/03/23 07:21:10;;;;;;;;;;;3.60;64.70;;;;;;4974375;28;19961;-77
2021/03/23 07:23:42;;;;;;;;;;;3.80;63.30;;;;;;4973624;28;20299;-80
2021/03/23 07:26:26;;;;;;;;;;;3.90;62.90;;;;;;4971632;28;19969;-80
2021/03/23 07:28:52;;;;;;;;;;;3.90;62.70;;;;;;4994223;28;19909;-81
2021/03/23 07:31:21;;;;;;;;;;;3.90;61.50;;;;;;5074262;28;19915;-79
2021/03/23 07:34:02;;;;;;;;;;;4.10;62.30;;;;;;5071755;28;19944;-81
2021/03/23 07:36:37;;;;;;;;;;;4.30;60.80;;;;;;5071685;28;19916;-78
2021/03/23 07:39:21;;;;;;;;;;;4.20;60.10;;;;;;5074124;28;19999;-79
2021/03/23 07:41:53;;;;;;;;;;;4.00;59.80;;;;;;5071343;28;19923;-79
2021/03/23 07:44:35;;;;;;;;;;;3.70;59.70;;;;;;5058864;28;19909;-79
2021/03/23 07:47:05;;;;;;;;;;;3.40;59.30;;;;;;5073320;28;19909;-79
2021/03/23 07:49:51;;;;;;;;;;;3.10;59.90;;;;;;5073966;28;19940;-78
2021/03/23 07:52:16;;;;;;;;;;;2.90;60.60;;;;;;5072828;28;19909;-79
2021/03/23 07:54:42;;;;;;;;;;;2.80;60.80;;;;;;5057506;28;19940;-78
2021/03/23 07:57:14;;;;;;;;;;;2.70;61.30;;;;;;5073907;28;19915;-78
2021/03/23 07:59:54;;;;;;;;;;;2.70;61.60;;;;;;5073530;28;19931;-80
2021/03/23 08:02:29;;;;;;;;;;;2.50;61.80;;;;;;5072762;28;19923;-82
2021/03/23 08:04:59;;;;;;;;;;;2.60;62.70;;;;;;5074597;28;19920;-81
2021/03/23 08:07:32;;;;;;;;;;;2.70;63.10;;;;;;5056145;28;19909;-81
2021/03/23 08:10:25;;;;;;;;;;;3.00;63.10;;;;;;5056097;28;19913;-82
2021/03/23 08:12:58;;;;;;;;;;;3.40;62.90;;;;;;5051747;28;19917;-82
2021/03/23 08:15:43;;;;;;;;;;;4.00;61.70;;;;;;5073879;28;19923;-82
2021/03/23 08:18:14;;;;;;;;;;;4.10;59.80;;;;;;5055845;28;19914;-83
2021/03/23 08:20:59;;;;;;;;;;;4.10;59.80;;;;;;5059899;28;19925;-84
2021/03/23 08:23:43;;;;;;;;;;;4.10;59.50;;;;;;5070038;28;19920;-79
2021/03/23 08:26:20;;;;;;;;;;;3.50;59.80;;;;;;5073154;28;20263;-83
2021/03/23 08:28:49;;;;;;;;;;;3.20;61.30;;;;;;5059741;28;19919;-83
2021/03/23 08:31:16;;;;;;;;;;;3.10;61.50;;;;;;5075127;28;19908;-79
2021/03/23 08:33:45;;;;;;;;;;;3.10;61.50;;;;;;5054985;28;19975;-81
2021/03/23 08:36:17;;;;;;;;;;;3.10;61.70;;;;;;5057015;28;19923;-87
2021/03/23 08:38:54;;;;;;;;;;;3.20;61.60;;;;;;5074519;28;19913;-85
2021/03/23 08:41:26;;;;;;;;;;;3.40;61.10;;;;;;5073705;28;19921;-83
2021/03/23 08:43:52;;;;;;;;;;;3.50;61.10;;;;;;5071162;28;19915;-82
2021/03/23 08:46:27;;;;;;;;;;;3.20;59.90;;;;;;5073104;28;19909;-83
2021/03/23 08:48:55;;;;;;;;;;;2.90;60.70;;;;;;5073867;28;19913;-82
2021/03/23 08:51:23;;;;;;;;;;;2.80;61.40;;;;;;5071996;28;19913;-83
2021/03/23 08:54:04;;;;;;;;;;;2.80;61.30;;;;;;5074756;28;20000;-85
2021/03/23 08:56:42;;;;;;;;;;;2.90;61.30;;;;;;5078352;28;19958;-83
2021/03/23 08:59:28;;;;;;;;;;;2.80;61.10;;;;;;5074725;28;19920;-87
2021/03/23 09:01:54;;;;;;;;;;;2.60;60.70;;;;;;5063641;28;19927;-89
2021/03/23 09:04:23;;;;;;;;;;;2.40;61.00;;;;;;5069771;28;19948;-86
2021/03/23 09:07:19;;;;;;;;;;;2.40;61.30;;;;;;5078024;28;19908;-86
2021/03/23 09:09:49;;;;;;;;;;;2.30;61.20;;;;;;5075058;28;19909;-87
2021/03/23 09:12:36;;;;;;;;;;;2.30;61.00;;;;;;5054364;28;19912;-83
2021/03/23 09:15:17;;;;;;;;;;;2.20;60.50;;;;;;5070984;28;19909;-83
2021/03/23 09:17:52;;;;;;;;;;;2.10;60.70;;;;;;5052577;28;19959;-81
2021/03/23 09:20:30;;;;;;;;;;;2.10;60.80;;;;;;5069002;28;19924;-82
2021/03/23 09:23:16;;;;;;;;;;;2.20;60.60;;;;;;5070168;28;20385;-81
2021/03/23 09:25:48;;;;;;;;;;;2.30;60.30;;;;;;5054997;28;20362;-80
2021/03/23 09:28:29;;;;;;;;;;;2.40;59.20;;;;;;5072273;28;19935;-80
2021/03/23 09:30:55;;;;;;;;;;;2.50;58.50;;;;;;5054673;28;19916;-84
2021/03/23 09:33:24;;;;;;;;;;;2.70;58.00;;;;;;5071694;28;19917;-80
2021/03/23 09:36:02;;;;;;;;;;;2.70;58.00;;;;;;5073085;28;19931;-83
2021/03/23 09:38:33;;;;;;;;;;;2.70;58.10;;;;;;5076620;28;20358;-83
2021/03/23 09:41:06;;;;;;;;;;;2.60;58.30;;;;;;5081618;23;20516;-82
2021/03/23 09:43:37;;;;;;;;;;;2.50;58.40;;;;;;4990394;28;19910;-81
2021/03/23 09:46:05;;;;;;;;;;;2.30;58.80;;;;;;4981842;28;20511;-81
2021/03/23 09:48:53;;;;;;;;;;;2.20;58.70;;;;;;4979069;28;20013;-82
2021/03/23 09:51:21;;;;;;;;;;;2.00;58.00;;;;;;4960025;28;19910;-82
2021/03/23 09:53:47;;;;;;;;;;;1.90;58.60;;;;;;4977327;28;19917;-84
2021/03/23 09:56:14;;;;;;;;;;;1.90;58.60;;;;;;4994664;28;19914;-83
2021/03/23 09:58:40;;;;;;;;;;;1.90;57.70;;;;;;4997665;28;20376;-84
2021/03/23 10:01:15;;;;;;;;;;;1.90;57.70;;;;;;4997210;28;19972;-81
2021/03/23 10:03:42;;;;;;;;;;;1.90;58.90;;;;;;5002681;28;19910;-82
2021/03/23 10:06:10;;;;;;;;;;;2.10;57.90;;;;;;4997589;28;19914;-79
2021/03/23 10:08:36;;;;;;;;;;;2.20;57.80;;;;;;4988662;28;19921;-80
2021/03/23 10:11:06;;;;;;;;;;;2.30;57.40;;;;;;4989899;28;19925;-78
2021/03/23 10:13:32;;;;;;;;;;;2.40;56.80;;;;;;4981629;28;19914;-78
2021/03/23 10:16:00;;;;;;;;;;;2.40;56.70;;;;;;4999099;28;19953;-79
2021/03/23 10:18:27;;;;;;;;;;;2.40;55.80;;;;;;4996750;28;19933;-79
2021/03/23 10:20:55;;;;;;;;;;;2.40;55.90;;;;;;4997435;28;20259;-79
2021/03/23 10:23:23;;;;;;;;;;;2.40;55.60;;;;;;4995596;28;20379;-79
2021/03/23 10:25:59;;;;;;;;;;;2.50;55.90;;;;;;4996543;28;19910;-79
2021/03/23 10:28:30;;;;;;;;;;;2.60;55.40;;;;;;4997105;28;19917;-80
2021/03/23 10:30:57;;;;;;;;;;;2.80;55.40;;;;;;4996878;28;19910;-79
2021/03/23 10:33:29;;;;;;;;;;;3.10;54.80;;;;;;4998065;28;19960;-79
2021/03/23 10:35:57;;;;;;;;;;;3.30;54.70;;;;;;4996694;28;19917;-79
2021/03/23 10:38:34;;;;;;;;;;;3.20;53.80;;;;;;4997492;28;19910;-79
2021/03/23 10:41:01;;;;;;;;;;;3.10;54.10;;;;;;4996452;28;19961;-79
2021/03/23 10:43:29;;;;;;;;;;;3.00;54.30;;;;;;4979556;28;19936;-79
2021/03/23 10:46:05;;;;;;;;;;;3.00;54.00;;;;;;4995617;28;19910;-77
2021/03/23 10:48:39;;;;;;;;;;;2.70;54.60;;;;;;4994794;28;19917;-81
2021/03/23 10:51:18;;;;;;;;;;;2.60;55.20;;;;;;4996806;28;19960;-82
2021/03/23 10:54:03;;;;;;;;;;;2.60;54.70;;;;;;4980564;28;20335;-82
2021/03/23 10:56:33;;;;;;;;;;;2.70;54.50;;;;;;5000005;28;20303;-82
2021/03/23 10:59:11;;;;;;;;;;;2.80;53.70;;;;;;5004085;28;20275;-86
2021/03/23 11:02:02;;;;;;;;;;;2.80;53.70;;;;;;5001903;28;20010;-84
2021/03/23 11:04:28;;;;;;;;;;;2.90;53.90;;;;;;4997219;28;19933;-84
2021/03/23 11:06:56;;;;;;;;;;;3.00;54.00;;;;;;5012066;28;19913;-82
2021/03/23 11:09:22;;;;;;;;;;;3.10;54.20;;;;;;5008351;28;20004;-84
2021/03/23 11:11:49;;;;;;;;;;;3.20;54.30;;;;;;4996354;28;19984;-83
2021/03/23 11:14:16;;;;;;;;;;;3.20;54.10;;;;;;4998344;28;19917;-83
2021/03/23 11:16:43;;;;;;;;;;;3.10;54.20;;;;;;4991194;28;19925;-83
2021/03/23 11:19:27;;;;;;;;;;;3.00;54.10;;;;;;4996003;28;19953;-81
2021/03/23 11:21:56;;;;;;;;;;;3.00;54.60;;;;;;4996928;28;20268;-82
2021/03/23 11:24:23;;;;;;;;;;;3.00;54.20;;;;;;4979409;28;19914;-84
2021/03/23 11:26:49;;;;;;;;;;;2.80;53.50;;;;;;4996568;28;19917;-82
2021/03/23 11:29:21;;;;;;;;;;;2.60;53.50;;;;;;4996116;28;19910;-82
2021/03/23 11:31:46;;;;;;;;;;;2.40;54.40;;;;;;4997589;28;19917;-80
2021/03/23 11:34:12;;;;;;;;;;;2.40;54.80;;;;;;4997321;28;19914;-79
2021/03/23 11:36:39;;;;;;;;;;;2.50;55.10;;;;;;4995967;28;20338;-83
2021/03/23 11:39:05;;;;;;;;;;;2.50;54.80;;;;;;4994047;28;19963;-80
2021/03/23 11:41:35;;;;;;;;;;;2.60;55.00;;;;;;4995942;28;19928;-81
2021/03/23 11:44:21;;;;;;;;;;;2.70;55.30;;;;;;4996033;28;19918;-81
2021/03/23 11:47:04;;;;;;;;;;;2.70;54.80;;;;;;4995702;28;19914;-80
2021/03/23 11:49:48;;;;;;;;;;;2.50;54.70;;;;;;4995290;28;20337;-82
2021/03/23 11:52:14;;;;;;;;;;;2.40;55.30;;;;;;4995255;28;19920;-81
2021/03/23 11:54:40;;;;;;;;;;;2.50;55.50;;;;;;4995328;28;19909;-80
2021/03/23 11:57:06;;;;;;;;;;;2.60;55.50;;;;;;4995198;28;19910;-82
2021/03/23 11:59:32;;;;;;;;;;;2.60;55.20;;;;;;4977723;28;20077;-81
2021/03/23 12:01:58;;;;;;;;;;;2.70;55.00;;;;;;4997309;28;20046;-81
2021/03/23 12:04:23;;;;;;;;;;;2.80;54.20;;;;;;4995842;28;19963;-81
2021/03/23 12:06:55;;;;;;;;;;;2.80;53.70;;;;;;4995775;28;19917;-81
2021/03/23 12:09:40;;;;;;;;;;;2.90;53.90;;;;;;4995125;28;19992;-81
2021/03/23 12:12:05;;;;;;;;;;;2.90;53.40;;;;;;4982572;28;19956;-82
2021/03/23 12:14:39;;;;;;;;;;;3.10;53.60;;;;;;4994451;28;20431;-84
2021/03/23 12:17:10;;;;;;;;;;;3.30;53.60;;;;;;4977536;28;19909;-82
2021/03/23 12:20:05;;;;;;;;;;;3.30;52.50;;;;;;4994892;28;19918;-81
2021/03/23 12:22:31;;;;;;;;;;;3.10;51.00;;;;;;4962863;28;19910;-83
2021/03/23 12:24:56;;;;;;;;;;;3.00;52.00;;;;;;4994827;28;20060;-82
2021/03/23 12:27:22;;;;;;;;;;;3.00;52.50;;;;;;4993166;28;19937;-82
2021/03/23 12:29:48;;;;;;;;;;;3.00;52.80;;;;;;4994633;28;20364;-82
2021/03/23 12:32:16;;;;;;;;;;;3.10;53.20;;;;;;4995089;28;19910;-83
2021/03/23 12:34:43;;;;;;;;;;;3.30;53.30;;;;;;4979122;28;19910;-84
2021/03/23 12:37:09;;;;;;;;;;;3.30;52.80;;;;;;4979773;28;19917;-82
2021/03/23 12:39:35;;;;;;;;;;;3.20;52.30;;;;;;4993486;28;19976;-84
2021/03/23 12:42:01;;;;;;;;;;;3.10;52.50;;;;;;4994703;28;19928;-83
2021/03/23 12:44:27;;;;;;;;;;;3.20;52.90;;;;;;4998122;28;19918;-83
2021/03/23 12:46:53;;;;;;;;;;;3.20;53.80;;;;;;5005822;28;19973;-83
2021/03/23 12:49:18;;;;;;;;;;;3.20;52.70;;;;;;4994798;28;20383;-79
2021/03/23 12:51:47;;;;;;;;;;;3.10;52.70;;;;;;4979886;28;19996;-83
2021/03/23 12:54:22;;;;;;;;;;;3.10;52.80;;;;;;5007241;28;19918;-82
2021/03/23 12:56:48;;;;;;;;;;;3.00;51.40;;;;;;4991024;28;19916;-80
2021/03/23 12:59:19;;;;;;;;;;;2.70;52.10;;;;;;4994479;28;19922;-83
2021/03/23 13:01:44;;;;;;;;;;;2.60;52.70;;;;;;4994077;28;19968;-82
2021/03/23 13:04:10;;;;;;;;;;;2.60;52.90;;;;;;4994196;28;20287;-83
2021/03/23 13:06:39;;;;;;;;;;;2.60;52.70;;;;;;4994205;28;19910;-83
2021/03/23 13:09:05;;;;;;;;;;;2.70;53.10;;;;;;4994227;28;19910;-82
2021/03/23 13:11:31;;;;;;;;;;;2.70;52.80;;;;;;4976670;28;20248;-83
2021/03/23 13:14:02;;;;;;;;;;;2.80;52.80;;;;;;4994828;28;20005;-85
2021/03/23 13:16:28;;;;;;;;;;;2.80;52.80;;;;;;4976174;28;19917;-84
2021/03/23 13:18:54;;;;;;;;;;;2.80;52.70;;;;;;4992341;28;20031;-85
2021/03/23 13:21:42;;;;;;;;;;;2.80;52.30;;;;;;4975962;28;20134;-83
2021/03/23 13:24:31;;;;;;;;;;;2.70;52.30;;;;;;4994004;28;19936;-84
2021/03/23 13:27:01;;;;;;;;;;;2.80;52.20;;;;;;5006997;28;19963;-76
2021/03/23 13:29:26;;;;;;;;;;;2.70;52.10;;;;;;4993549;28;19921;-82
2021/03/23 13:31:52;;;;;;;;;;;2.80;52.50;;;;;;4993970;28;19914;-80
2021/03/23 13:34:20;;;;;;;;;;;2.90;52.80;;;;;;4993699;28;19937;-84
2021/03/23 13:36:47;;;;;;;;;;;2.90;52.70;;;;;;4993789;28;19910;-82
2021/03/23 13:39:36;;;;;;;;;;;2.80;52.30;;;;;;4976257;28;20070;-82
2021/03/23 13:42:16;;;;;;;;;;;2.90;52.70;;;;;;4968676;28;19922;-80
2021/03/23 13:44:47;;;;;;;;;;;2.80;52.90;;;;;;4992306;28;20395;-81
2021/03/23 13:47:14;;;;;;;;;;;2.80;53.00;;;;;;4993757;28;19921;-81
2021/03/23 13:49:39;;;;;;;;;;;2.80;52.80;;;;;;4993186;28;19920;-82
2021/03/23 13:52:06;;;;;;;;;;;2.80;52.90;;;;;;4993595;28;19909;-82
2021/03/23 13:54:31;;;;;;;;;;;2.80;52.90;;;;;;4993748;28;19964;-81
2021/03/23 13:56:59;;;;;;;;;;;2.90;53.00;;;;;;4994153;28;19914;-82
2021/03/23 13:59:25;;;;;;;;;;;2.80;52.90;;;;;;5014206;28;20335;-83
2021/03/23 14:01:51;;;;;;;;;;;2.80;52.70;;;;;;5013881;28;20020;-80
2021/03/23 14:04:18;;;;;;;;;;;2.70;52.40;;;;;;5013419;28;19952;-79
2021/03/23 14:06:44;;;;;;;;;;;2.70;52.70;;;;;;5012814;28;19972;-79
2021/03/23 14:09:25;;;;;;;;;;;2.70;52.50;;;;;;5012180;28;19988;-78
2021/03/23 14:11:51;;;;;;;;;;;2.70;52.80;;;;;;5012429;28;19909;-78
2021/03/23 14:14:17;;;;;;;;;;;2.60;52.70;;;;;;4995159;28;19916;-78
2021/03/23 14:16:42;;;;;;;;;;;2.70;52.80;;;;;;5012276;28;19982;-78
2021/03/23 14:19:11;;;;;;;;;;;2.70;53.00;;;;;;5012606;28;20279;-78
2021/03/23 14:21:37;;;;;;;;;;;2.60;53.20;;;;;;5012525;28;19917;-80
2021/03/23 14:24:02;;;;;;;;;;;2.60;53.50;;;;;;5015080;28;19963;-80
2021/03/23 14:26:28;;;;;;;;;;;2.60;53.70;;;;;;4998829;28;20003;-80
2021/03/23 14:28:54;;;;;;;;;;;2.60;53.20;;;;;;5016704;28;20489;-78
2021/03/23 14:31:21;;;;;;;;;;;2.50;53.10;;;;;;5016274;28;19933;-78
2021/03/23 14:33:48;;;;;;;;;;;2.50;52.90;;;;;;4998668;28;20363;-77
2021/03/23 14:36:15;;;;;;;;;;;2.40;52.60;;;;;;5016279;28;19909;-79
2021/03/23 14:38:41;;;;;;;;;;;2.40;52.90;;;;;;4998264;28;19918;-80
2021/03/23 14:41:33;;;;;;;;;;;2.30;52.90;;;;;;5016331;28;19937;-78